Time;durP1;ratioP1;P1;durP2;ratioP2;P2;SDS_P1;SDS_P2;PMS_P1;PMS_P2;Temp;Humidity;BMP_temperature;BMP_pressure;BME280_temperature;BME280_humidity;BME280_pressure;Samples;Min_cycle;Max_cycle;Signal;HPM_P1;HPM_P2
2021/07/21 00:00:38;;;;;;;1.10;1.00;;;;;;;;;;5090049;28;20051;-59
2021/07/21 00:03:05;;;;;;;2.88;1.00;;;;;;;;;;5102008;28;20468;-59
2021/07/21 00:05:34;;;;;;;1.50;1.00;;;;;;;;;;5088529;28;20158;-60
2021/07/21 00:08:01;;;;;;;2.63;1.17;;;;;;;;;;5091019;28;20074;-59
2021/07/21 00:10:31;;;;;;;0.93;0.93;;;;;;;;;;5084012;28;20130;-59
2021/07/21 00:15:57;;;;;;;2.15;1.00;;;;;;;;;;5086197;28;20043;-60
2021/07/21 00:18:32;;;;;;;1.75;1.20;;;;;;;;;;5084963;28;20089;-58
2021/07/21 00:20:59;;;;;;;3.10;1.08;;;;;;;;;;5081520;28;20044;-59
2021/07/21 00:23:26;;;;;;;1.13;1.00;;;;;;;;;;5092384;28;20042;-58
2021/07/21 00:25:53;;;;;;;1.35;1.20;;;;;;;;;;5070715;28;20087;-59
2021/07/21 00:28:20;;;;;;;3.83;1.20;;;;;;;;;;5074635;28;20028;-59
2021/07/21 00:30:47;;;;;;;1.65;1.55;;;;;;;;;;5088579;28;20430;-59
2021/07/21 00:33:14;;;;;;;2.42;1.20;;;;;;;;;;5091992;28;20103;-58
2021/07/21 00:35:41;;;;;;;1.77;1.10;;;;;;;;;;5074883;28;20424;-58
2021/07/21 00:38:08;;;;;;;4.30;1.42;;;;;;;;;;5087476;28;20036;-59
2021/07/21 00:40:34;;;;;;;2.78;0.90;;;;;;;;;;5080108;28;20076;-59
2021/07/21 00:43:01;;;;;;;3.03;1.00;;;;;;;;;;5090579;28;20077;-59
2021/07/21 00:45:28;;;;;;;1.33;1.30;;;;;;;;;;5092013;28;20048;-61
2021/07/21 00:47:55;;;;;;;3.00;1.00;;;;;;;;;;5089528;28;20089;-58
2021/07/21 00:50:22;;;;;;;1.58;1.17;;;;;;;;;;5066492;28;20076;-59
2021/07/21 00:52:49;;;;;;;3.65;1.10;;;;;;;;;;5077953;28;20036;-59
2021/07/21 00:55:16;;;;;;;3.42;1.80;;;;;;;;;;5079213;28;20044;-59
2021/07/21 00:57:43;;;;;;;2.05;1.50;;;;;;;;;;5055100;28;20055;-59
2021/07/21 01:00:12;;;;;;;1.42;1.33;;;;;;;;;;5090351;28;20123;-59
2021/07/21 01:02:39;;;;;;;1.10;1.10;;;;;;;;;;5091205;28;20420;-58
2021/07/21 01:05:10;;;;;;;2.53;1.30;;;;;;;;;;5089917;28;20047;-58
2021/07/21 01:07:43;;;;;;;1.15;1.08;;;;;;;;;;5068329;28;20392;-58
2021/07/21 01:10:11;;;;;;;1.97;1.00;;;;;;;;;;5090228;28;20032;-59
2021/07/21 01:12:58;;;;;;;1.30;1.10;;;;;;;;;;5085157;28;20500;-58
2021/07/21 01:15:31;;;;;;;2.10;1.30;;;;;;;;;;5068066;28;20039;-58
2021/07/21 01:18:06;;;;;;;1.20;1.10;;;;;;;;;;5091625;28;20043;-60
2021/07/21 01:20:52;;;;;;;1.27;1.27;;;;;;;;;;5087311;28;20082;-58
2021/07/21 01:23:37;;;;;;;3.72;1.20;;;;;;;;;;5090394;28;20096;-58
2021/07/21 01:26:08;;;;;;;1.15;1.10;;;;;;;;;;5088243;28;20443;-59
2021/07/21 01:28:35;;;;;;;1.80;1.35;;;;;;;;;;5091112;28;20047;-59
2021/07/21 01:31:04;;;;;;;1.83;1.35;;;;;;;;;;5085003;28;20116;-58
2021/07/21 01:33:31;;;;;;;1.70;1.60;;;;;;;;;;5079115;28;20052;-58
2021/07/21 01:36:02;;;;;;;1.48;1.20;;;;;;;;;;5073349;28;20036;-58
2021/07/21 01:38:33;;;;;;;4.13;1.00;;;;;;;;;;5092700;28;20097;-59
2021/07/21 01:41:02;;;;;;;3.67;1.10;;;;;;;;;;5103573;28;20109;-58
2021/07/21 01:43:30;;;;;;;2.15;1.20;;;;;;;;;;5081526;28;20040;-58
2021/07/21 01:45:58;;;;;;;2.45;1.20;;;;;;;;;;5090290;28;20399;-59
2021/07/21 01:48:25;;;;;;;1.20;1.10;;;;;;;;;;5072934;28;20037;-58
2021/07/21 01:50:54;;;;;;;1.75;1.20;;;;;;;;;;5088476;28;20075;-58
2021/07/21 01:53:21;;;;;;;2.25;1.45;;;;;;;;;;5089096;28;20101;-59
2021/07/21 01:55:48;;;;;;;1.30;1.00;;;;;;;;;;5065215;28;20541;-58
2021/07/21 01:58:16;;;;;;;1.40;1.30;;;;;;;;;;5089652;28;20071;-58
2021/07/21 02:00:43;;;;;;;1.92;1.20;;;;;;;;;;5089163;28;20067;-58
2021/07/21 02:03:10;;;;;;;2.63;1.30;;;;;;;;;;5089981;28;20040;-58
2021/07/21 02:05:38;;;;;;;1.10;1.08;;;;;;;;;;5087593;28;20036;-58
2021/07/21 02:08:06;;;;;;;1.88;1.30;;;;;;;;;;5091709;28;20032;-59
2021/07/21 02:10:33;;;;;;;3.25;1.35;;;;;;;;;;5085196;28;20036;-58
2021/07/21 02:13:02;;;;;;;1.88;1.63;;;;;;;;;;5089109;28;20173;-58
2021/07/21 02:15:29;;;;;;;1.98;1.20;;;;;;;;;;5090688;28;20551;-58
2021/07/21 02:17:56;;;;;;;1.10;1.10;;;;;;;;;;5087931;28;20047;-60
2021/07/21 02:20:25;;;;;;;1.48;1.40;;;;;;;;;;5089986;28;20089;-59
2021/07/21 02:22:52;;;;;;;1.45;1.33;;;;;;;;;;5086159;28;20079;-59
2021/07/21 02:25:23;;;;;;;1.40;1.30;;;;;;;;;;5080779;28;20050;-60
2021/07/21 02:27:49;;;;;;;1.48;1.35;;;;;;;;;;5089328;28;20487;-59
2021/07/21 02:30:16;;;;;;;1.50;1.40;;;;;;;;;;5071523;28;20044;-58
2021/07/21 02:32:52;;;;;;;1.58;1.15;;;;;;;;;;5071652;28;20520;-58
2021/07/21 02:35:21;;;;;;;2.03;1.55;;;;;;;;;;5088057;28;20040;-59
2021/07/21 02:37:49;;;;;;;1.25;1.15;;;;;;;;;;5089051;28;20486;-59
2021/07/21 02:40:16;;;;;;;4.07;1.90;;;;;;;;;;5062666;28;20434;-59
2021/07/21 02:42:43;;;;;;;3.13;1.33;;;;;;;;;;5066552;28;20036;-58
2021/07/21 02:45:11;;;;;;;2.10;1.55;;;;;;;;;;5061779;28;20097;-58
2021/07/21 02:47:39;;;;;;;1.38;1.27;;;;;;;;;;5067016;28;20041;-59
2021/07/21 02:50:06;;;;;;;1.63;1.45;;;;;;;;;;5059125;28;20033;-58
2021/07/21 02:52:37;;;;;;;2.17;1.08;;;;;;;;;;5054543;28;20041;-58
2021/07/21 02:55:07;;;;;;;1.75;1.65;;;;;;;;;;5062027;28;20048;-58
2021/07/21 02:57:46;;;;;;;3.88;1.52;;;;;;;;;;5067136;28;20032;-59
2021/07/21 03:00:17;;;;;;;2.38;1.75;;;;;;;;;;5069955;28;20037;-59
2021/07/21 03:02:45;;;;;;;1.27;1.17;;;;;;;;;;5069756;28;20037;-59
2021/07/21 03:05:13;;;;;;;1.63;1.20;;;;;;;;;;5066390;28;20091;-59
2021/07/21 03:07:42;;;;;;;8.50;1.92;;;;;;;;;;5068456;28;20451;-58
2021/07/21 03:10:10;;;;;;;1.55;1.30;;;;;;;;;;5066893;28;20043;-58
2021/07/21 03:12:39;;;;;;;2.03;1.30;;;;;;;;;;5052288;28;20037;-58
2021/07/21 03:15:06;;;;;;;3.63;1.42;;;;;;;;;;5067520;28;20056;-58
2021/07/21 03:17:36;;;;;;;1.40;1.30;;;;;;;;;;5067609;28;20469;-59
2021/07/21 03:20:05;;;;;;;14.00;1.52;;;;;;;;;;5059816;28;20092;-58
2021/07/21 03:22:33;;;;;;;1.45;1.35;;;;;;;;;;5058694;28;20051;-58
2021/07/21 03:25:00;;;;;;;3.55;1.20;;;;;;;;;;5069259;28;20583;-58
2021/07/21 03:27:27;;;;;;;1.25;1.13;;;;;;;;;;5068244;28;20067;-60
2021/07/21 03:29:54;;;;;;;3.08;1.30;;;;;;;;;;5070581;28;20381;-59
2021/07/21 03:32:27;;;;;;;1.85;1.45;;;;;;;;;;5071400;28;20396;-58
2021/07/21 03:34:54;;;;;;;1.52;1.23;;;;;;;;;;5071840;28;20041;-59
2021/07/21 03:37:22;;;;;;;2.45;1.60;;;;;;;;;;5071649;28;20040;-59
2021/07/21 03:39:54;;;;;;;2.88;1.42;;;;;;;;;;5074638;28;20051;-58
2021/07/21 03:42:25;;;;;;;1.52;1.23;;;;;;;;;;5074573;28;20044;-59
2021/07/21 03:44:53;;;;;;;1.70;1.60;;;;;;;;;;5075081;28;20044;-59
2021/07/21 03:47:20;;;;;;;1.50;1.40;;;;;;;;;;5072997;28;20187;-58
2021/07/21 03:49:49;;;;;;;3.85;1.20;;;;;;;;;;5055130;28;20040;-58
2021/07/21 03:52:16;;;;;;;1.58;1.48;;;;;;;;;;5074552;28;20044;-58
2021/07/21 03:54:43;;;;;;;3.25;1.25;;;;;;;;;;5072232;28;20032;-58
2021/07/21 03:57:17;;;;;;;2.78;1.65;;;;;;;;;;5054536;28;20143;-59
2021/07/21 03:59:44;;;;;;;3.28;1.67;;;;;;;;;;5068955;28;20052;-59
2021/07/21 04:02:10;;;;;;;1.95;1.85;;;;;;;;;;5065257;28;20492;-58
2021/07/21 04:04:46;;;;;;;2.13;1.70;;;;;;;;;;5052491;28;20041;-58
2021/07/21 04:07:16;;;;;;;2.00;1.90;;;;;;;;;;5049166;28;20052;-59
2021/07/21 04:09:44;;;;;;;1.80;1.30;;;;;;;;;;5070792;28;20039;-58
2021/07/21 04:12:13;;;;;;;2.45;1.33;;;;;;;;;;5054687;28;20079;-58
2021/07/21 04:14:44;;;;;;;1.92;1.83;;;;;;;;;;5071969;28;20533;-58
2021/07/21 04:17:11;;;;;;;1.40;1.40;;;;;;;;;;5057797;28;20033;-58
2021/07/21 04:19:39;;;;;;;1.20;1.20;;;;;;;;;;5066978;28;20463;-59
2021/07/21 04:22:07;;;;;;;4.82;1.70;;;;;;;;;;5081275;28;20045;-59
2021/07/21 04:24:34;;;;;;;1.73;1.63;;;;;;;;;;5066361;28;20041;-58
2021/07/21 04:27:04;;;;;;;1.60;1.50;;;;;;;;;;5062830;28;20467;-58
2021/07/21 04:29:32;;;;;;;3.17;1.60;;;;;;;;;;5073175;28;20059;-58
2021/07/21 04:32:00;;;;;;;2.35;1.63;;;;;;;;;;5072032;28;20522;-60
2021/07/21 04:34:27;;;;;;;3.17;1.17;;;;;;;;;;5053774;28;20079;-59
2021/07/21 04:36:54;;;;;;;5.53;1.90;;;;;;;;;;5064830;28;20033;-59
2021/07/21 04:39:21;;;;;;;1.45;1.45;;;;;;;;;;5072540;28;20504;-58
2021/07/21 04:41:51;;;;;;;1.63;1.50;;;;;;;;;;5066912;28;20603;-58
2021/07/21 04:44:19;;;;;;;1.60;1.50;;;;;;;;;;5067787;28;20033;-58
2021/07/21 04:46:47;;;;;;;2.75;1.40;;;;;;;;;;5069813;28;20081;-59
2021/07/21 04:49:17;;;;;;;1.30;1.20;;;;;;;;;;5068041;28;20075;-59
2021/07/21 04:51:45;;;;;;;3.42;1.55;;;;;;;;;;5072398;28;20036;-58
2021/07/21 04:54:11;;;;;;;3.08;1.42;;;;;;;;;;5057938;28;20032;-58
2021/07/21 04:56:38;;;;;;;6.03;1.75;;;;;;;;;;5078114;28;20128;-59
2021/07/21 04:59:05;;;;;;;1.48;1.38;;;;;;;;;;5081342;28;20064;-58
2021/07/21 05:01:34;;;;;;;4.95;1.20;;;;;;;;;;5059536;28;20147;-58
2021/07/21 05:04:02;;;;;;;1.85;1.70;;;;;;;;;;5070035;28;20037;-59
2021/07/21 05:06:30;;;;;;;2.45;1.77;;;;;;;;;;5069536;28;20099;-57
2021/07/21 05:08:57;;;;;;;2.85;1.45;;;;;;;;;;5063133;28;20045;-59
2021/07/21 05:11:23;;;;;;;2.30;1.40;;;;;;;;;;5061869;28;20731;-59
2021/07/21 05:13:50;;;;;;;6.97;2.20;;;;;;;;;;5056468;28;20095;-58
2021/07/21 05:16:17;;;;;;;5.82;1.67;;;;;;;;;;5071988;28;20048;-58
2021/07/21 05:18:46;;;;;;;3.95;2.25;;;;;;;;;;5073693;28;20059;-59
2021/07/21 05:21:13;;;;;;;2.40;2.05;;;;;;;;;;5053218;28;20131;-58
2021/07/21 05:23:40;;;;;;;3.63;1.88;;;;;;;;;;5071006;28;20041;-59
2021/07/21 05:26:07;;;;;;;2.03;1.92;;;;;;;;;;5066007;28;20037;-58
2021/07/21 05:28:38;;;;;;;1.92;1.77;;;;;;;;;;5052696;28;20597;-42
2021/07/21 05:31:06;;;;;;;1.85;1.75;;;;;;;;;;5068714;28;20090;-41
2021/07/21 05:33:32;;;;;;;1.73;1.63;;;;;;;;;;5066287;28;20064;-42
2021/07/21 05:35:59;;;;;;;3.28;1.52;;;;;;;;;;5075944;28;20071;-42
2021/07/21 05:38:26;;;;;;;2.50;1.95;;;;;;;;;;5069186;28;20041;-43
2021/07/21 05:40:53;;;;;;;1.90;1.80;;;;;;;;;;5088674;28;20084;-42
2021/07/21 05:43:21;;;;;;;5.72;2.05;;;;;;;;;;5089948;28;20579;-44
2021/07/21 05:45:47;;;;;;;2.28;2.17;;;;;;;;;;5086101;28;20117;-43
2021/07/21 05:48:15;;;;;;;4.50;2.17;;;;;;;;;;5086427;28;20089;-44
2021/07/21 05:50:42;;;;;;;5.70;1.88;;;;;;;;;;5072097;28;20464;-41
2021/07/21 05:53:09;;;;;;;2.45;2.33;;;;;;;;;;5090595;28;20032;-42
2021/07/21 05:55:36;;;;;;;2.53;1.90;;;;;;;;;;5088557;28;20064;-43
2021/07/21 05:58:03;;;;;;;2.33;2.20;;;;;;;;;;5090808;28;20063;-43
2021/07/21 06:00:30;;;;;;;2.38;2.13;;;;;;;;;;5089550;28;20040;-42
2021/07/21 06:02:56;;;;;;;1.95;1.85;;;;;;;;;;5085010;28;20059;-44
2021/07/21 06:05:24;;;;;;;2.58;1.80;;;;;;;;;;5086350;28;20047;-43
2021/07/21 06:07:50;;;;;;;2.75;1.73;;;;;;;;;;5089129;28;20074;-42
2021/07/21 06:10:17;;;;;;;1.90;1.77;;;;;;;;;;5089687;28;20453;-43
2021/07/21 06:12:44;;;;;;;2.30;2.10;;;;;;;;;;5087543;28;20040;-43
2021/07/21 06:15:11;;;;;;;9.88;2.08;;;;;;;;;;5075144;28;20044;-43
2021/07/21 06:17:38;;;;;;;3.83;1.60;;;;;;;;;;5090839;28;20232;-42
2021/07/21 06:20:07;;;;;;;2.35;1.20;;;;;;;;;;5083282;28;20499;-43
2021/07/21 06:22:38;;;;;;;3.58;1.90;;;;;;;;;;5089871;28;20043;-44
2021/07/21 06:25:07;;;;;;;6.97;1.42;;;;;;;;;;5088134;28;20079;-43
2021/07/21 06:27:34;;;;;;;4.80;1.25;;;;;;;;;;5089343;28;20055;-43
2021/07/21 06:30:06;;;;;;;4.85;2.03;;;;;;;;;;5078053;28;20040;-43
2021/07/21 06:32:42;;;;;;;2.55;1.23;;;;;;;;;;5086012;28;20131;-43
2021/07/21 06:35:09;;;;;;;1.33;1.23;;;;;;;;;;5071049;28;20063;-41
2021/07/21 06:37:36;;;;;;;1.58;1.48;;;;;;;;;;5091290;28;20037;-44
2021/07/21 06:40:03;;;;;;;1.05;1.05;;;;;;;;;;5089855;28;20127;-43
2021/07/21 06:42:30;;;;;;;3.63;1.33;;;;;;;;;;5076509;28;20045;-44
2021/07/21 06:44:57;;;;;;;4.10;1.00;;;;;;;;;;5084650;28;20078;-43
2021/07/21 06:47:24;;;;;;;2.53;1.25;;;;;;;;;;5074259;28;20891;-42
2021/07/21 06:49:55;;;;;;;1.73;1.23;;;;;;;;;;5081166;28;20052;-43
2021/07/21 06:52:24;;;;;;;1.92;0.90;;;;;;;;;;5087698;28;20078;-43
2021/07/21 06:54:52;;;;;;;1.60;0.98;;;;;;;;;;5089532;28;20040;-43
2021/07/21 06:57:19;;;;;;;3.63;1.00;;;;;;;;;;5089731;28;20695;-41
2021/07/21 06:59:46;;;;;;;1.35;0.90;;;;;;;;;;5087047;28;20651;-42
2021/07/21 07:02:13;;;;;;;1.35;0.98;;;;;;;;;;5078523;28;20044;-44
2021/07/21 07:04:40;;;;;;;1.98;1.00;;;;;;;;;;5092772;28;20089;-43
2021/07/21 07:07:07;;;;;;;5.82;1.05;;;;;;;;;;5095451;28;20527;-42
2021/07/21 07:09:34;;;;;;;1.70;1.10;;;;;;;;;;5089396;28;20098;-44
2021/07/21 07:12:01;;;;;;;2.13;0.95;;;;;;;;;;5083630;28;20074;-42
2021/07/21 07:14:27;;;;;;;3.00;0.90;;;;;;;;;;5096114;28;20119;-43
2021/07/21 07:16:54;;;;;;;3.80;1.15;;;;;;;;;;5094518;28;20475;-43
2021/07/21 07:19:21;;;;;;;2.83;0.80;;;;;;;;;;5093586;28;20105;-46
2021/07/21 07:21:48;;;;;;;2.50;0.82;;;;;;;;;;5090417;28;20592;-44
2021/07/21 07:24:15;;;;;;;2.50;0.80;;;;;;;;;;5094725;28;20060;-44
2021/07/21 07:26:41;;;;;;;2.05;1.10;;;;;;;;;;5082722;28;20044;-42
2021/07/21 07:29:08;;;;;;;3.45;0.80;;;;;;;;;;5091001;28;20068;-43
2021/07/21 07:31:39;;;;;;;0.90;0.90;;;;;;;;;;5110738;28;20122;-43
2021/07/21 07:34:06;;;;;;;1.92;1.02;;;;;;;;;;5096855;28;20054;-42
2021/07/21 07:36:32;;;;;;;1.13;0.80;;;;;;;;;;5097626;28;20430;-43
2021/07/21 07:38:59;;;;;;;0.70;0.70;;;;;;;;;;5092064;28;20044;-42
2021/07/21 07:41:26;;;;;;;1.00;0.70;;;;;;;;;;5092229;28;20077;-43
2021/07/21 07:43:53;;;;;;;1.42;0.80;;;;;;;;;;5079464;28;20032;-43
2021/07/21 07:46:19;;;;;;;0.82;0.82;;;;;;;;;;5097315;28;20119;-45
2021/07/21 07:48:46;;;;;;;0.73;0.73;;;;;;;;;;5096305;28;20104;-41
2021/07/21 07:51:13;;;;;;;1.02;1.02;;;;;;;;;;5095778;28;20040;-43
2021/07/21 07:53:40;;;;;;;2.58;0.70;;;;;;;;;;5092968;28;20090;-42
2021/07/21 07:56:07;;;;;;;0.75;0.75;;;;;;;;;;5094314;28;20059;-43
2021/07/21 07:58:33;;;;;;;0.70;0.70;;;;;;;;;;5085874;28;20048;-42
2021/07/21 08:01:00;;;;;;;1.17;0.70;;;;;;;;;;5088369;28;20480;-43
2021/07/21 08:03:27;;;;;;;1.52;0.70;;;;;;;;;;5081395;28;20520;-44
2021/07/21 08:05:56;;;;;;;2.35;0.70;;;;;;;;;;5090552;28;20044;-44
2021/07/21 08:08:23;;;;;;;2.15;0.60;;;;;;;;;;5091799;28;20101;-42
2021/07/21 08:10:50;;;;;;;5.38;1.33;;;;;;;;;;5084163;28;20461;-43
2021/07/21 08:13:19;;;;;;;1.25;0.63;;;;;;;;;;5089193;28;20035;-44
2021/07/21 08:15:47;;;;;;;2.97;0.70;;;;;;;;;;5093067;28;20036;-44
2021/07/21 08:18:14;;;;;;;0.80;0.80;;;;;;;;;;5094981;28;20364;-43
2021/07/21 08:20:41;;;;;;;1.25;0.75;;;;;;;;;;5090028;28;20040;-44
2021/07/21 08:23:08;;;;;;;2.10;1.02;;;;;;;;;;5086667;28;20430;-44
2021/07/21 08:25:35;;;;;;;1.52;0.80;;;;;;;;;;5091499;28;20127;-44
2021/07/21 08:28:02;;;;;;;1.52;0.70;;;;;;;;;;5091034;28;20456;-43
2021/07/21 08:30:29;;;;;;;3.40;0.70;;;;;;;;;;5085139;28;20104;-43
2021/07/21 08:32:58;;;;;;;5.25;0.70;;;;;;;;;;5082872;28;20059;-43
2021/07/21 08:35:26;;;;;;;1.60;0.60;;;;;;;;;;5080452;28;20430;-44
2021/07/21 08:37:53;;;;;;;2.47;0.70;;;;;;;;;;5090180;28;20507;-44
2021/07/21 08:40:21;;;;;;;2.20;0.68;;;;;;;;;;5078355;28;20053;-44
2021/07/21 08:42:47;;;;;;;2.22;0.80;;;;;;;;;;5083471;28;20052;-43
2021/07/21 08:45:14;;;;;;;3.63;1.08;;;;;;;;;;5082871;28;20047;-44
2021/07/21 08:47:41;;;;;;;1.83;0.60;;;;;;;;;;5092192;28;20140;-42
2021/07/21 08:50:08;;;;;;;3.15;0.65;;;;;;;;;;5087481;28;20124;-43
2021/07/21 08:52:35;;;;;;;1.90;0.60;;;;;;;;;;5076330;28;20346;-43
2021/07/21 08:55:07;;;;;;;0.60;0.60;;;;;;;;;;5092590;28;20496;-44
2021/07/21 08:57:35;;;;;;;1.25;0.60;;;;;;;;;;5090649;28;20063;-43
2021/07/21 09:00:07;;;;;;;2.17;0.50;;;;;;;;;;5109643;28;20118;-44
2021/07/21 09:02:36;;;;;;;0.50;0.50;;;;;;;;;;5074213;28;20046;-42
2021/07/21 09:05:04;;;;;;;1.85;0.50;;;;;;;;;;5090068;28;20044;-43
2021/07/21 09:07:33;;;;;;;0.60;0.55;;;;;;;;;;5090449;28;20139;-44
2021/07/21 09:10:12;;;;;;;3.38;0.50;;;;;;;;;;5087571;28;20040;-44
2021/07/21 09:12:40;;;;;;;0.50;0.50;;;;;;;;;;5084217;28;20072;-42
2021/07/21 09:15:08;;;;;;;2.72;0.60;;;;;;;;;;5090012;28;20047;-45
2021/07/21 09:17:35;;;;;;;1.52;0.60;;;;;;;;;;5089866;28;20063;-43
2021/07/21 09:20:03;;;;;;;1.70;0.50;;;;;;;;;;5090446;28;20040;-43
2021/07/21 09:22:36;;;;;;;0.50;0.50;;;;;;;;;;5088267;28;20495;-44
2021/07/21 09:25:17;;;;;;;1.85;1.08;;;;;;;;;;5089926;28;20491;-44
2021/07/21 09:27:45;;;;;;;0.50;0.50;;;;;;;;;;5090531;28;20059;-44
2021/07/21 09:30:14;;;;;;;0.55;0.50;;;;;;;;;;5089109;28;20048;-45
2021/07/21 09:32:54;;;;;;;2.28;0.73;;;;;;;;;;5090808;28;20063;-44
2021/07/21 09:35:22;;;;;;;0.50;0.50;;;;;;;;;;5087400;28;20028;-45
2021/07/21 09:37:49;;;;;;;1.85;0.60;;;;;;;;;;5087038;28;20060;-42
2021/07/21 09:40:16;;;;;;;0.50;0.50;;;;;;;;;;5091269;28;20122;-44
2021/07/21 09:42:43;;;;;;;1.05;0.50;;;;;;;;;;5093444;28;20464;-45
2021/07/21 09:45:10;;;;;;;0.50;0.50;;;;;;;;;;5090371;28;20082;-42
2021/07/21 09:47:41;;;;;;;0.60;0.43;;;;;;;;;;5090678;28;20055;-44
2021/07/21 09:50:15;;;;;;;0.50;0.50;;;;;;;;;;5083584;28;20040;-43
2021/07/21 09:52:52;;;;;;;0.40;0.40;;;;;;;;;;5080888;28;20409;-44
2021/07/21 09:55:19;;;;;;;0.40;0.40;;;;;;;;;;5085903;28;20037;-44
2021/07/21 09:57:56;;;;;;;0.50;0.50;;;;;;;;;;5075836;28;20573;-43
2021/07/21 10:00:24;;;;;;;1.02;0.40;;;;;;;;;;5089987;28;20093;-45
2021/07/21 10:03:04;;;;;;;1.38;0.60;;;;;;;;;;5089025;28;20039;-44
2021/07/21 10:05:32;;;;;;;1.35;0.50;;;;;;;;;;5079512;28;20059;-46
2021/07/21 10:08:02;;;;;;;1.65;0.50;;;;;;;;;;5085809;28;20040;-44
2021/07/21 10:10:31;;;;;;;0.50;0.40;;;;;;;;;;5089845;28;20040;-43
2021/07/21 10:13:03;;;;;;;0.82;0.50;;;;;;;;;;5088300;28;20093;-44
2021/07/21 10:15:30;;;;;;;1.20;0.55;;;;;;;;;;5089565;28;20545;-44
2021/07/21 10:18:08;;;;;;;3.25;0.63;;;;;;;;;;5089968;28;20083;-46
2021/07/21 10:20:35;;;;;;;0.80;0.40;;;;;;;;;;5088234;28;21038;-44
2021/07/21 10:23:02;;;;;;;1.90;0.40;;;;;;;;;;5087455;28;20075;-45
2021/07/21 10:25:30;;;;;;;3.70;0.40;;;;;;;;;;5074008;28;20075;-43
2021/07/21 10:27:58;;;;;;;0.40;0.40;;;;;;;;;;5089046;28;20538;-45
2021/07/21 10:30:30;;;;;;;6.05;0.40;;;;;;;;;;5087146;28;20115;-47
2021/07/21 10:32:57;;;;;;;0.90;0.40;;;;;;;;;;5090527;28;20036;-46
2021/07/21 10:35:24;;;;;;;0.60;0.40;;;;;;;;;;5084135;28;20664;-42
2021/07/21 10:37:52;;;;;;;1.85;0.40;;;;;;;;;;5080511;28;20031;-44
2021/07/21 10:40:25;;;;;;;0.40;0.40;;;;;;;;;;5095445;28;20531;-46
2021/07/21 10:42:53;;;;;;;0.90;0.55;;;;;;;;;;5096266;28;20039;-45
2021/07/21 10:45:20;;;;;;;2.50;0.40;;;;;;;;;;5074011;28;20071;-47
2021/07/21 10:47:49;;;;;;;0.40;0.40;;;;;;;;;;5087089;28;20615;-46
2021/07/21 10:50:58;;;;;;;0.40;0.40;;;;;;;;;;5089159;28;20381;-47
2021/07/21 10:53:26;;;;;;;0.75;0.40;;;;;;;;;;5094847;28;20478;-43
2021/07/21 11:01:28;;;;;;;0.40;0.40;;;;;;;;;;5084553;28;20102;-44
2021/07/21 11:04:02;;;;;;;1.45;1.20;;;;;;;;;;5086719;28;20422;-45
2021/07/21 11:06:50;;;;;;;1.05;0.50;;;;;;;;;;5087690;28;20031;-44
2021/07/21 11:09:23;;;;;;;0.90;0.50;;;;;;;;;;5088166;28;20043;-45
2021/07/21 11:11:52;;;;;;;0.45;0.45;;;;;;;;;;5086837;28;20044;-44
2021/07/21 11:14:20;;;;;;;1.27;0.40;;;;;;;;;;5080426;28;20040;-45
2021/07/21 11:16:52;;;;;;;3.30;0.45;;;;;;;;;;5088934;28;20063;-46
2021/07/21 11:19:40;;;;;;;0.50;0.50;;;;;;;;;;5088943;28;20032;-44
2021/07/21 11:22:06;;;;;;;1.63;0.55;;;;;;;;;;5073850;28;20063;-45
2021/07/21 11:24:53;;;;;;;0.40;0.40;;;;;;;;;;5090517;28;20113;-46
2021/07/21 11:27:58;;;;;;;0.43;0.38;;;;;;;;;;5075483;28;20062;-47
2021/07/21 11:30:41;;;;;;;0.40;0.40;;;;;;;;;;4971211;28;20372;-45
2021/07/21 11:33:26;;;;;;;0.35;0.35;;;;;;;;;;4987019;28;20046;-45
2021/07/21 11:35:53;;;;;;;0.40;0.40;;;;;;;;;;4982093;28;20945;-48
2021/07/21 11:38:40;;;;;;;0.50;0.40;;;;;;;;;;4977333;28;20050;-45
2021/07/21 11:41:07;;;;;;;1.58;0.40;;;;;;;;;;4988249;28;20130;-43
2021/07/21 11:43:34;;;;;;;1.30;0.40;;;;;;;;;;4987208;28;20616;-43
2021/07/21 11:46:04;;;;;;;0.50;0.40;;;;;;;;;;4970770;28;20468;-45
2021/07/21 11:48:31;;;;;;;0.43;0.30;;;;;;;;;;4985134;28;20058;-44
2021/07/21 11:50:58;;;;;;;0.30;0.30;;;;;;;;;;4984126;28;20065;-43
2021/07/21 11:53:25;;;;;;;0.30;0.30;;;;;;;;;;4986805;28;20106;-43
2021/07/21 11:55:53;;;;;;;0.30;0.30;;;;;;;;;;4985840;28;20059;-44
2021/07/21 11:58:20;;;;;;;0.30;0.30;;;;;;;;;;4989710;28;20062;-43
2021/07/21 12:00:47;;;;;;;0.43;0.43;;;;;;;;;;5011259;28;20496;-43
2021/07/21 12:03:19;;;;;;;0.40;0.40;;;;;;;;;;5065269;28;20108;-44
2021/07/21 12:05:56;;;;;;;3.55;0.70;;;;;;;;;;5068957;28;20037;-44
2021/07/21 12:08:23;;;;;;;0.30;0.30;;;;;;;;;;5068235;28;20041;-43
2021/07/21 12:10:50;;;;;;;0.85;0.28;;;;;;;;;;5069187;28;20048;-43
2021/07/21 12:13:20;;;;;;;0.85;0.30;;;;;;;;;;5071675;28;20037;-44
2021/07/21 12:15:56;;;;;;;0.30;0.20;;;;;;;;;;5072449;28;20043;-43
2021/07/21 12:18:24;;;;;;;1.35;0.30;;;;;;;;;;5071168;28;20040;-45
2021/07/21 12:20:50;;;;;;;1.85;0.38;;;;;;;;;;5076549;28;20044;-43
2021/07/21 12:23:21;;;;;;;1.17;0.30;;;;;;;;;;5074499;28;20060;-44
2021/07/21 12:25:47;;;;;;;0.30;0.30;;;;;;;;;;5064036;28;20481;-45
2021/07/21 12:28:14;;;;;;;1.15;0.22;;;;;;;;;;5066263;28;20090;-43
2021/07/21 12:30:41;;;;;;;0.30;0.30;;;;;;;;;;5053718;28;20045;-43
2021/07/21 12:33:08;;;;;;;1.65;0.30;;;;;;;;;;5069711;28;20040;-42
2021/07/21 12:35:35;;;;;;;0.30;0.30;;;;;;;;;;5052285;28;20041;-44
2021/07/21 12:38:03;;;;;;;0.90;0.85;;;;;;;;;;5062591;28;20036;-44
2021/07/21 12:40:30;;;;;;;0.30;0.30;;;;;;;;;;5082165;28;20468;-43
2021/07/21 12:42:58;;;;;;;1.17;0.38;;;;;;;;;;5090089;28;20052;-43
2021/07/21 12:45:26;;;;;;;0.73;0.30;;;;;;;;;;5082230;28;20116;-42
2021/07/21 12:47:54;;;;;;;0.30;0.30;;;;;;;;;;5082842;28;21383;-43
2021/07/21 12:50:30;;;;;;;0.40;0.40;;;;;;;;;;5091500;28;20056;-43
2021/07/21 12:53:04;;;;;;;1.35;0.40;;;;;;;;;;5088985;28;20044;-42
2021/07/21 12:55:31;;;;;;;0.40;0.40;;;;;;;;;;5089568;28;20127;-45
2021/07/21 12:57:58;;;;;;;1.65;0.40;;;;;;;;;;5092009;28;20434;-43
2021/07/21 13:00:27;;;;;;;0.40;0.30;;;;;;;;;;5090236;28;20063;-44
2021/07/21 13:03:21;;;;;;;2.92;0.32;;;;;;;;;;5073433;28;20087;-44
2021/07/21 13:05:48;;;;;;;1.25;0.40;;;;;;;;;;5074733;28;20062;-43
2021/07/21 13:08:34;;;;;;;0.60;0.30;;;;;;;;;;5089255;28;20555;-45
2021/07/21 13:11:01;;;;;;;3.38;0.55;;;;;;;;;;5079135;28;20062;-43
2021/07/21 13:13:29;;;;;;;1.90;0.50;;;;;;;;;;5084053;28;20393;-44
2021/07/21 13:16:19;;;;;;;0.50;0.40;;;;;;;;;;5080291;28;20435;-46
2021/07/21 13:18:48;;;;;;;0.40;0.40;;;;;;;;;;5090003;28;20107;-43
2021/07/21 13:21:24;;;;;;;0.30;0.30;;;;;;;;;;5091280;28;20038;-45
2021/07/21 13:23:55;;;;;;;0.85;0.40;;;;;;;;;;5088096;28;20376;-46
2021/07/21 13:26:22;;;;;;;0.40;0.40;;;;;;;;;;5073651;28;20079;-42
2021/07/21 13:28:53;;;;;;;0.40;0.40;;;;;;;;;;5088325;28;20386;-44
2021/07/21 13:31:40;;;;;;;0.40;0.40;;;;;;;;;;5075177;28;20040;-44
2021/07/21 13:34:18;;;;;;;0.50;0.50;;;;;;;;;;5090568;28;20119;-44
2021/07/21 13:36:44;;;;;;;1.20;0.40;;;;;;;;;;5091009;28;20047;-44
2021/07/21 13:39:11;;;;;;;0.93;0.40;;;;;;;;;;5078172;28;20492;-45
2021/07/21 13:41:40;;;;;;;0.40;0.40;;;;;;;;;;5083130;28;20056;-43
2021/07/21 13:44:16;;;;;;;0.70;0.43;;;;;;;;;;5079728;28;20036;-45
2021/07/21 13:46:48;;;;;;;0.40;0.40;;;;;;;;;;5090513;28;20042;-45
2021/07/21 13:49:15;;;;;;;1.92;0.40;;;;;;;;;;5088821;28;20060;-44
2021/07/21 13:51:44;;;;;;;1.23;0.40;;;;;;;;;;5087808;28;20028;-43
2021/07/21 13:54:10;;;;;;;0.95;0.40;;;;;;;;;;5099226;28;20041;-44
2021/07/21 13:56:37;;;;;;;0.40;0.40;;;;;;;;;;5087341;28;20040;-43
2021/07/21 13:59:04;;;;;;;0.40;0.40;;;;;;;;;;5091263;28;20040;-45
2021/07/21 14:01:31;;;;;;;0.40;0.40;;;;;;;;;;5070306;28;20044;-43
2021/07/21 14:03:59;;;;;;;1.67;0.40;;;;;;;;;;5089822;28;20051;-43
2021/07/21 14:06:27;;;;;;;0.40;0.40;;;;;;;;;;5079110;28;20131;-44
2021/07/21 14:09:12;;;;;;;0.43;0.43;;;;;;;;;;5088451;28;20046;-43
2021/07/21 14:11:40;;;;;;;0.40;0.40;;;;;;;;;;5088331;28;20043;-45
2021/07/21 14:14:07;;;;;;;0.40;0.40;;;;;;;;;;5089691;28;20136;-43
2021/07/21 14:16:35;;;;;;;0.65;0.65;;;;;;;;;;5090646;28;20504;-43
2021/07/21 14:19:02;;;;;;;0.40;0.40;;;;;;;;;;5077382;28;20064;-43
2021/07/21 14:21:29;;;;;;;0.95;0.40;;;;;;;;;;5086513;28;20090;-44
2021/07/21 14:23:58;;;;;;;1.38;0.55;;;;;;;;;;5077758;28;20094;-42
2021/07/21 14:26:25;;;;;;;1.33;0.40;;;;;;;;;;5088400;28;20048;-44
2021/07/21 14:28:52;;;;;;;0.43;0.40;;;;;;;;;;5087320;28;20127;-43
2021/07/21 14:31:20;;;;;;;1.35;0.60;;;;;;;;;;5089867;28;20047;-44
2021/07/21 14:34:03;;;;;;;0.50;0.50;;;;;;;;;;5082076;28;20028;-42
2021/07/21 14:36:30;;;;;;;0.50;0.50;;;;;;;;;;5078384;28;20062;-44
2021/07/21 14:38:57;;;;;;;0.47;0.47;;;;;;;;;;5087119;28;20039;-44
2021/07/21 14:41:25;;;;;;;0.50;0.45;;;;;;;;;;5085066;28;20087;-43
2021/07/21 14:43:52;;;;;;;0.50;0.50;;;;;;;;;;5075297;28;20043;-43
2021/07/21 14:46:19;;;;;;;0.52;0.40;;;;;;;;;;5088043;28;20036;-45
2021/07/21 14:49:06;;;;;;;0.40;0.40;;;;;;;;;;5087667;28;20036;-43
2021/07/21 14:51:33;;;;;;;0.40;0.40;;;;;;;;;;5072739;28;20045;-44
2021/07/21 14:54:00;;;;;;;0.90;0.40;;;;;;;;;;5087935;28;20147;-45
2021/07/21 14:56:27;;;;;;;0.50;0.50;;;;;;;;;;5089036;28;20089;-43
2021/07/21 14:58:54;;;;;;;1.92;0.47;;;;;;;;;;5077292;28;20115;-43
2021/07/21 15:01:20;;;;;;;0.88;0.40;;;;;;;;;;5082950;28;20127;-43
2021/07/21 15:03:47;;;;;;;1.30;0.50;;;;;;;;;;5071636;28;20044;-44